sensor_id;sensor_type;location;lat;lon;timestamp;P1;durP1;ratioP1;P2;durP2;ratioP2
20298;SDS011;10308;42.688;23.256;2023-04-06T04:02:43;7.05;;;6.55;;
20298;SDS011;10308;42.688;23.256;2023-04-06T04:05:13;7.43;;;6.93;;
20298;SDS011;10308;42.688;23.256;2023-04-06T04:07:43;5.93;;;5.63;;
20298;SDS011;10308;42.688;23.256;2023-04-06T04:10:10;6.50;;;6.00;;
20298;SDS011;10308;42.688;23.256;2023-04-06T04:12:39;6.25;;;5.85;;
20298;SDS011;10308;42.688;23.256;2023-04-06T04:15:09;6.50;;;6.07;;
20298;SDS011;10308;42.688;23.256;2023-04-06T04:17:38;6.70;;;6.30;;
20298;SDS011;10308;42.688;23.256;2023-04-06T04:20:10;6.75;;;6.25;;
20298;SDS011;10308;42.688;23.256;2023-04-06T04:22:40;6.10;;;5.70;;
20298;SDS011;10308;42.688;23.256;2023-04-06T04:25:09;7.18;;;6.68;;
20298;SDS011;10308;42.688;23.256;2023-04-06T04:27:36;6.57;;;6.18;;
20298;SDS011;10308;42.688;23.256;2023-04-06T04:30:04;7.50;;;6.93;;
20298;SDS011;10308;42.688;23.256;2023-04-06T04:32:34;7.13;;;6.63;;
20298;SDS011;10308;42.688;23.256;2023-04-06T04:35:01;7.32;;;6.82;;
20298;SDS011;10308;42.688;23.256;2023-04-06T04:37:31;7.03;;;6.53;;
20298;SDS011;10308;42.688;23.256;2023-04-06T04:40:01;7.47;;;6.80;;
20298;SDS011;10308;42.688;23.256;2023-04-06T04:42:28;7.18;;;6.68;;
20298;SDS011;10308;42.688;23.256;2023-04-06T04:44:56;7.00;;;6.50;;
20298;SDS011;10308;42.688;23.256;2023-04-06T04:47:23;7.20;;;6.70;;
20298;SDS011;10308;42.688;23.256;2023-04-06T04:49:52;7.18;;;6.47;;
20298;SDS011;10308;42.688;23.256;2023-04-06T04:52:19;7.65;;;7.05;;
20298;SDS011;10308;42.688;23.256;2023-04-06T04:54:52;7.47;;;6.90;;
20298;SDS011;10308;42.688;23.256;2023-04-06T04:57:19;7.65;;;7.15;;
20298;SDS011;10308;42.688;23.256;2023-04-06T04:59:46;7.55;;;6.97;;
20298;SDS011;10308;42.688;23.256;2023-04-06T05:02:16;8.52;;;7.82;;
20298;SDS011;10308;42.688;23.256;2023-04-06T05:04:44;7.75;;;7.22;;
20298;SDS011;10308;42.688;23.256;2023-04-06T05:07:11;9.20;;;8.43;;
20298;SDS011;10308;42.688;23.256;2023-04-06T05:09:42;8.35;;;7.75;;
20298;SDS011;10308;42.688;23.256;2023-04-06T05:12:12;8.80;;;8.10;;
20298;SDS011;10308;42.688;23.256;2023-04-06T05:14:41;8.05;;;7.45;;
20298;SDS011;10308;42.688;23.256;2023-04-06T05:17:10;7.57;;;7.07;;
20298;SDS011;10308;42.688;23.256;2023-04-06T05:19:39;7.97;;;7.47;;
20298;SDS011;10308;42.688;23.256;2023-04-06T05:22:07;8.20;;;7.60;;
20298;SDS011;10308;42.688;23.256;2023-04-06T05:24:34;9.05;;;8.35;;
20298;SDS011;10308;42.688;23.256;2023-04-06T05:27:05;9.35;;;8.50;;
20298;SDS011;10308;42.688;23.256;2023-04-06T05:29:35;9.50;;;8.63;;
20298;SDS011;10308;42.688;23.256;2023-04-06T05:32:05;9.75;;;9.05;;
20298;SDS011;10308;42.688;23.256;2023-04-06T05:34:37;9.38;;;8.68;;
20298;SDS011;10308;42.688;23.256;2023-04-06T05:37:05;9.10;;;8.40;;
20298;SDS011;10308;42.688;23.256;2023-04-06T05:39:32;8.88;;;8.27;;
20298;SDS011;10308;42.688;23.256;2023-04-06T05:42:03;9.65;;;8.95;;
20298;SDS011;10308;42.688;23.256;2023-04-06T05:44:32;9.60;;;8.90;;
20298;SDS011;10308;42.688;23.256;2023-04-06T05:47:04;10.15;;;9.45;;
20298;SDS011;10308;42.688;23.256;2023-04-06T05:49:32;9.75;;;9.05;;
20298;SDS011;10308;42.688;23.256;2023-04-06T05:52:02;9.90;;;9.20;;
20298;SDS011;10308;42.688;23.256;2023-04-06T05:54:29;9.27;;;8.57;;
20298;SDS011;10308;42.688;23.256;2023-04-06T05:56:57;10.25;;;9.45;;
20298;SDS011;10308;42.688;23.256;2023-04-06T05:59:27;10.82;;;9.95;;
20298;SDS011;10308;42.688;23.256;2023-04-06T06:01:55;9.73;;;9.02;;
20298;SDS011;10308;42.688;23.256;2023-04-06T06:04:24;9.55;;;8.90;;
20298;SDS011;10308;42.688;23.256;2023-04-06T06:06:52;10.43;;;9.45;;
20298;SDS011;10308;42.688;23.256;2023-04-06T06:09:20;9.77;;;8.98;;
20298;SDS011;10308;42.688;23.256;2023-04-06T06:11:48;12.20;;;10.55;;
20298;SDS011;10308;42.688;23.256;2023-04-06T06:14:15;10.70;;;9.80;;
20298;SDS011;10308;42.688;23.256;2023-04-06T06:16:42;10.45;;;9.55;;
20298;SDS011;10308;42.688;23.256;2023-04-06T06:19:11;9.15;;;8.45;;
20298;SDS011;10308;42.688;23.256;2023-04-06T06:21:43;10.68;;;9.77;;
20298;SDS011;10308;42.688;23.256;2023-04-06T06:24:11;11.55;;;10.43;;
20298;SDS011;10308;42.688;23.256;2023-04-06T06:26:42;9.60;;;8.85;;
20298;SDS011;10308;42.688;23.256;2023-04-06T06:29:12;9.80;;;9.00;;
20298;SDS011;10308;42.688;23.256;2023-04-06T06:31:40;9.30;;;8.60;;
20298;SDS011;10308;42.688;23.256;2023-04-06T06:34:07;9.48;;;8.70;;
20298;SDS011;10308;42.688;23.256;2023-04-06T06:36:39;9.85;;;9.15;;
20298;SDS011;10308;42.688;23.256;2023-04-06T06:39:09;10.43;;;9.43;;
20298;SDS011;10308;42.688;23.256;2023-04-06T06:41:37;9.73;;;8.93;;
20298;SDS011;10308;42.688;23.256;2023-04-06T06:44:06;10.20;;;9.40;;
20298;SDS011;10308;42.688;23.256;2023-04-06T06:46:34;11.45;;;10.50;;
20298;SDS011;10308;42.688;23.256;2023-04-06T06:49:02;13.35;;;12.13;;
20298;SDS011;10308;42.688;23.256;2023-04-06T06:51:30;11.57;;;10.57;;
20298;SDS011;10308;42.688;23.256;2023-04-06T06:53:59;10.82;;;10.02;;
20298;SDS011;10308;42.688;23.256;2023-04-06T06:56:30;11.85;;;10.75;;
20298;SDS011;10308;42.688;23.256;2023-04-06T06:58:58;11.93;;;10.93;;
20298;SDS011;10308;42.688;23.256;2023-04-06T07:01:25;12.10;;;11.10;;
20298;SDS011;10308;42.688;23.256;2023-04-06T07:03:55;9.90;;;9.20;;
20298;SDS011;10308;42.688;23.256;2023-04-06T07:06:26;10.63;;;9.82;;
20298;SDS011;10308;42.688;23.256;2023-04-06T07:08:54;10.23;;;9.43;;
20298;SDS011;10308;42.688;23.256;2023-04-06T07:11:26;10.02;;;9.23;;
20298;SDS011;10308;42.688;23.256;2023-04-06T07:13:56;9.57;;;8.85;;
20298;SDS011;10308;42.688;23.256;2023-04-06T07:16:24;8.80;;;8.10;;
20298;SDS011;10308;42.688;23.256;2023-04-06T07:18:52;9.68;;;8.93;;
20298;SDS011;10308;42.688;23.256;2023-04-06T07:21:21;9.52;;;8.73;;
20298;SDS011;10308;42.688;23.256;2023-04-06T07:23:48;9.52;;;8.80;;
20298;SDS011;10308;42.688;23.256;2023-04-06T07:26:16;10.25;;;9.45;;
20298;SDS011;10308;42.688;23.256;2023-04-06T07:28:47;9.48;;;8.77;;
20298;SDS011;10308;42.688;23.256;2023-04-06T07:31:14;10.30;;;9.50;;
20298;SDS011;10308;42.688;23.256;2023-04-06T07:33:41;10.32;;;9.52;;
20298;SDS011;10308;42.688;23.256;2023-04-06T07:36:08;10.40;;;9.60;;
20298;SDS011;10308;42.688;23.256;2023-04-06T07:38:35;10.60;;;9.80;;
20298;SDS011;10308;42.688;23.256;2023-04-06T07:41:02;10.27;;;9.55;;
20298;SDS011;10308;42.688;23.256;2023-04-06T07:43:30;10.15;;;9.45;;
20298;SDS011;10308;42.688;23.256;2023-04-06T07:45:58;11.00;;;10.10;;
20298;SDS011;10308;42.688;23.256;2023-04-06T07:48:26;10.57;;;9.77;;
20298;SDS011;10308;42.688;23.256;2023-04-06T07:51:00;11.02;;;10.23;;
20298;SDS011;10308;42.688;23.256;2023-04-06T07:53:29;10.73;;;9.73;;
20298;SDS011;10308;42.688;23.256;2023-04-06T07:55:57;11.00;;;10.10;;
20298;SDS011;10308;42.688;23.256;2023-04-06T07:58:25;11.05;;;10.20;;
20298;SDS011;10308;42.688;23.256;2023-04-06T08:00:52;11.05;;;10.15;;
20298;SDS011;10308;42.688;23.256;2023-04-06T08:03:23;11.27;;;10.48;;
20298;SDS011;10308;42.688;23.256;2023-04-06T08:05:53;10.88;;;9.98;;
20298;SDS011;10308;42.688;23.256;2023-04-06T08:08:23;9.88;;;9.20;;
20298;SDS011;10308;42.688;23.256;2023-04-06T08:10:50;10.23;;;9.43;;
20298;SDS011;10308;42.688;23.256;2023-04-06T08:13:17;10.82;;;10.02;;
20298;SDS011;10308;42.688;23.256;2023-04-06T08:15:45;10.60;;;9.80;;
20298;SDS011;10308;42.688;23.256;2023-04-06T08:18:12;10.10;;;9.40;;
20298;SDS011;10308;42.688;23.256;2023-04-06T08:20:42;10.90;;;9.88;;
20298;SDS011;10308;42.688;23.256;2023-04-06T08:23:11;10.55;;;9.65;;
20298;SDS011;10308;42.688;23.256;2023-04-06T08:25:38;11.52;;;10.52;;
20298;SDS011;10308;42.688;23.256;2023-04-06T08:28:05;10.98;;;9.50;;
20298;SDS011;10308;42.688;23.256;2023-04-06T08:30:32;9.65;;;8.90;;
20298;SDS011;10308;42.688;23.256;2023-04-06T08:32:59;9.48;;;8.75;;
20298;SDS011;10308;42.688;23.256;2023-04-06T08:35:26;10.05;;;9.05;;
20298;SDS011;10308;42.688;23.256;2023-04-06T08:37:55;10.73;;;9.65;;
20298;SDS011;10308;42.688;23.256;2023-04-06T08:40:23;10.25;;;9.35;;
20298;SDS011;10308;42.688;23.256;2023-04-06T08:42:52;10.05;;;9.18;;
20298;SDS011;10308;42.688;23.256;2023-04-06T08:45:21;9.88;;;8.98;;
20298;SDS011;10308;42.688;23.256;2023-04-06T08:47:50;9.30;;;8.60;;
20298;SDS011;10308;42.688;23.256;2023-04-06T08:50:19;9.75;;;8.98;;
20298;SDS011;10308;42.688;23.256;2023-04-06T08:52:49;9.50;;;8.77;;
20298;SDS011;10308;42.688;23.256;2023-04-06T08:55:19;10.43;;;9.38;;
20298;SDS011;10308;42.688;23.256;2023-04-06T08:57:47;10.15;;;9.35;;
20298;SDS011;10308;42.688;23.256;2023-04-06T09:00:16;9.88;;;9.05;;
20298;SDS011;10308;42.688;23.256;2023-04-06T09:02:43;8.48;;;7.78;;
20298;SDS011;10308;42.688;23.256;2023-04-06T09:05:12;9.95;;;9.15;;
20298;SDS011;10308;42.688;23.256;2023-04-06T09:07:39;11.38;;;10.30;;
20298;SDS011;10308;42.688;23.256;2023-04-06T09:10:07;9.55;;;8.85;;
20298;SDS011;10308;42.688;23.256;2023-04-06T09:12:36;10.38;;;9.55;;
20298;SDS011;10308;42.688;23.256;2023-04-06T09:15:05;10.98;;;10.07;;
20298;SDS011;10308;42.688;23.256;2023-04-06T09:17:32;10.15;;;9.35;;
20298;SDS011;10308;42.688;23.256;2023-04-06T09:20:03;9.90;;;9.20;;
20298;SDS011;10308;42.688;23.256;2023-04-06T09:22:35;10.07;;;9.30;;
20298;SDS011;10308;42.688;23.256;2023-04-06T09:25:04;10.07;;;9.27;;
20298;SDS011;10308;42.688;23.256;2023-04-06T09:27:38;9.73;;;9.02;;
20298;SDS011;10308;42.688;23.256;2023-04-06T09:30:07;9.32;;;8.65;;
20298;SDS011;10308;42.688;23.256;2023-04-06T09:32:47;8.57;;;7.97;;
20298;SDS011;10308;42.688;23.256;2023-04-06T09:35:17;8.77;;;8.10;;
20298;SDS011;10308;42.688;23.256;2023-04-06T09:37:47;9.23;;;8.52;;
20298;SDS011;10308;42.688;23.256;2023-04-06T09:40:16;10.40;;;9.60;;
20298;SDS011;10308;42.688;23.256;2023-04-06T09:42:49;9.40;;;8.68;;
20298;SDS011;10308;42.688;23.256;2023-04-06T09:45:20;9.15;;;8.55;;
20298;SDS011;10308;42.688;23.256;2023-04-06T09:47:51;8.48;;;7.82;;
20298;SDS011;10308;42.688;23.256;2023-04-06T09:50:22;8.82;;;8.10;;
20298;SDS011;10308;42.688;23.256;2023-04-06T09:52:51;9.07;;;8.38;;
20298;SDS011;10308;42.688;23.256;2023-04-06T09:55:22;8.55;;;7.88;;
20298;SDS011;10308;42.688;23.256;2023-04-06T09:58:04;8.73;;;8.13;;
20298;SDS011;10308;42.688;23.256;2023-04-06T10:00:35;8.00;;;7.50;;
20298;SDS011;10308;42.688;23.256;2023-04-06T10:03:12;9.77;;;8.98;;
20298;SDS011;10308;42.688;23.256;2023-04-06T10:05:46;9.43;;;8.63;;
20298;SDS011;10308;42.688;23.256;2023-04-06T10:08:15;8.88;;;8.07;;
20298;SDS011;10308;42.688;23.256;2023-04-06T10:10:43;9.32;;;8.65;;
20298;SDS011;10308;42.688;23.256;2023-04-06T10:13:11;9.80;;;9.00;;
20298;SDS011;10308;42.688;23.256;2023-04-06T10:15:39;8.90;;;8.20;;
20298;SDS011;10308;42.688;23.256;2023-04-06T10:18:06;9.52;;;8.80;;
20298;SDS011;10308;42.688;23.256;2023-04-06T10:20:35;9.07;;;8.38;;
20298;SDS011;10308;42.688;23.256;2023-04-06T10:23:09;8.50;;;7.90;;
20298;SDS011;10308;42.688;23.256;2023-04-06T10:25:51;8.45;;;7.70;;
20298;SDS011;10308;42.688;23.256;2023-04-06T10:28:21;8.38;;;7.75;;
20298;SDS011;10308;42.688;23.256;2023-04-06T10:30:56;8.60;;;7.90;;
20298;SDS011;10308;42.688;23.256;2023-04-06T10:33:26;8.52;;;7.82;;
20298;SDS011;10308;42.688;23.256;2023-04-06T10:35:53;8.63;;;8.02;;
20298;SDS011;10308;42.688;23.256;2023-04-06T10:38:32;8.82;;;8.13;;
20298;SDS011;10308;42.688;23.256;2023-04-06T10:41:03;8.27;;;7.68;;
20298;SDS011;10308;42.688;23.256;2023-04-06T10:43:34;8.30;;;7.80;;
20298;SDS011;10308;42.688;23.256;2023-04-06T10:46:05;8.25;;;7.57;;
20298;SDS011;10308;42.688;23.256;2023-04-06T10:48:37;8.30;;;7.60;;
20298;SDS011;10308;42.688;23.256;2023-04-06T10:51:07;8.68;;;7.97;;
20298;SDS011;10308;42.688;23.256;2023-04-06T10:53:36;8.88;;;8.18;;
20298;SDS011;10308;42.688;23.256;2023-04-06T10:56:04;8.93;;;8.23;;
20298;SDS011;10308;42.688;23.256;2023-04-06T10:58:38;8.20;;;7.60;;
20298;SDS011;10308;42.688;23.256;2023-04-06T11:01:11;8.85;;;8.07;;
20298;SDS011;10308;42.688;23.256;2023-04-06T11:03:42;8.40;;;7.80;;
20298;SDS011;10308;42.688;23.256;2023-04-06T11:06:09;9.20;;;8.48;;
20298;SDS011;10308;42.688;23.256;2023-04-06T11:08:39;8.88;;;8.18;;
20298;SDS011;10308;42.688;23.256;2023-04-06T11:11:08;7.70;;;7.20;;
20298;SDS011;10308;42.688;23.256;2023-04-06T11:13:40;7.70;;;7.20;;
20298;SDS011;10308;42.688;23.256;2023-04-06T11:16:12;7.88;;;7.28;;
20298;SDS011;10308;42.688;23.256;2023-04-06T11:18:48;8.30;;;7.60;;
20298;SDS011;10308;42.688;23.256;2023-04-06T11:21:16;8.48;;;7.88;;
20298;SDS011;10308;42.688;23.256;2023-04-06T11:23:44;8.68;;;7.97;;
20298;SDS011;10308;42.688;23.256;2023-04-06T11:26:15;8.13;;;7.53;;
20298;SDS011;10308;42.688;23.256;2023-04-06T11:28:43;8.07;;;7.47;;
20298;SDS011;10308;42.688;23.256;2023-04-06T11:31:13;8.05;;;7.43;;
20298;SDS011;10308;42.688;23.256;2023-04-06T11:33:45;8.45;;;7.75;;
20298;SDS011;10308;42.688;23.256;2023-04-06T11:36:13;8.52;;;7.82;;
20298;SDS011;10308;42.688;23.256;2023-04-06T11:38:40;8.55;;;7.65;;
20298;SDS011;10308;42.688;23.256;2023-04-06T11:41:07;8.40;;;7.80;;
20298;SDS011;10308;42.688;23.256;2023-04-06T11:43:35;8.20;;;7.50;;
20298;SDS011;10308;42.688;23.256;2023-04-06T11:46:04;8.20;;;7.60;;
20298;SDS011;10308;42.688;23.256;2023-04-06T11:48:43;7.68;;;7.03;;
20298;SDS011;10308;42.688;23.256;2023-04-06T11:51:10;7.82;;;7.22;;
20298;SDS011;10308;42.688;23.256;2023-04-06T11:53:43;8.00;;;7.40;;
20298;SDS011;10308;42.688;23.256;2023-04-06T11:56:11;8.23;;;7.63;;
20298;SDS011;10308;42.688;23.256;2023-04-06T11:58:50;7.70;;;7.05;;
20298;SDS011;10308;42.688;23.256;2023-04-06T12:01:21;8.48;;;7.88;;
20298;SDS011;10308;42.688;23.256;2023-04-06T12:03:49;8.27;;;7.57;;
20298;SDS011;10308;42.688;23.256;2023-04-06T12:06:20;8.18;;;7.57;;
20298;SDS011;10308;42.688;23.256;2023-04-06T12:08:48;7.20;;;6.70;;
20298;SDS011;10308;42.688;23.256;2023-04-06T12:11:16;8.10;;;7.45;;
20298;SDS011;10308;42.688;23.256;2023-04-06T12:13:45;7.80;;;7.30;;
20298;SDS011;10308;42.688;23.256;2023-04-06T12:16:14;8.52;;;7.93;;
20298;SDS011;10308;42.688;23.256;2023-04-06T12:18:42;8.13;;;7.43;;
20298;SDS011;10308;42.688;23.256;2023-04-06T12:21:09;8.23;;;7.57;;
20298;SDS011;10308;42.688;23.256;2023-04-06T12:23:39;8.35;;;7.75;;
20298;SDS011;10308;42.688;23.256;2023-04-06T12:26:09;8.77;;;8.07;;
20298;SDS011;10308;42.688;23.256;2023-04-06T12:28:36;8.13;;;7.40;;
20298;SDS011;10308;42.688;23.256;2023-04-06T12:31:04;7.32;;;6.80;;
20298;SDS011;10308;42.688;23.256;2023-04-06T12:33:31;8.05;;;7.45;;
20298;SDS011;10308;42.688;23.256;2023-04-06T12:36:02;7.22;;;6.70;;
20298;SDS011;10308;42.688;23.256;2023-04-06T12:38:29;7.90;;;7.22;;
20298;SDS011;10308;42.688;23.256;2023-04-06T12:40:56;7.55;;;6.95;;
20298;SDS011;10308;42.688;23.256;2023-04-06T12:43:24;7.30;;;6.68;;
20298;SDS011;10308;42.688;23.256;2023-04-06T12:45:54;7.97;;;7.28;;
20298;SDS011;10308;42.688;23.256;2023-04-06T12:48:22;7.85;;;7.25;;
20298;SDS011;10308;42.688;23.256;2023-04-06T12:50:54;7.45;;;6.85;;
20298;SDS011;10308;42.688;23.256;2023-04-06T12:53:26;7.55;;;6.85;;
20298;SDS011;10308;42.688;23.256;2023-04-06T12:55:53;7.80;;;7.20;;
20298;SDS011;10308;42.688;23.256;2023-04-06T12:58:24;8.52;;;7.82;;
20298;SDS011;10308;42.688;23.256;2023-04-06T13:00:57;7.53;;;6.82;;
20298;SDS011;10308;42.688;23.256;2023-04-06T13:03:27;7.22;;;6.72;;
20298;SDS011;10308;42.688;23.256;2023-04-06T13:05:58;6.53;;;6.13;;
20298;SDS011;10308;42.688;23.256;2023-04-06T13:08:30;7.05;;;6.40;;
20298;SDS011;10308;42.688;23.256;2023-04-06T13:10:58;7.07;;;6.55;;
20298;SDS011;10308;42.688;23.256;2023-04-06T13:13:27;8.00;;;7.32;;
20298;SDS011;10308;42.688;23.256;2023-04-06T13:15:58;7.05;;;6.55;;
20298;SDS011;10308;42.688;23.256;2023-04-06T13:18:26;7.30;;;6.80;;
20298;SDS011;10308;42.688;23.256;2023-04-06T13:20:55;7.25;;;6.55;;
20298;SDS011;10308;42.688;23.256;2023-04-06T13:23:23;7.95;;;7.35;;
20298;SDS011;10308;42.688;23.256;2023-04-06T13:25:58;7.50;;;6.90;;
20298;SDS011;10308;42.688;23.256;2023-04-06T13:28:27;7.60;;;7.00;;
20298;SDS011;10308;42.688;23.256;2023-04-06T13:30:57;7.38;;;6.88;;
20298;SDS011;10308;42.688;23.256;2023-04-06T13:33:26;7.75;;;7.15;;
20298;SDS011;10308;42.688;23.256;2023-04-06T13:35:55;7.28;;;6.68;;
20298;SDS011;10308;42.688;23.256;2023-04-06T13:38:24;7.43;;;6.60;;
20298;SDS011;10308;42.688;23.256;2023-04-06T13:40:53;6.90;;;6.38;;
20298;SDS011;10308;42.688;23.256;2023-04-06T13:43:25;7.55;;;6.95;;
20298;SDS011;10308;42.688;23.256;2023-04-06T13:45:55;7.25;;;6.60;;
20298;SDS011;10308;42.688;23.256;2023-04-06T13:48:26;7.43;;;6.85;;
20298;SDS011;10308;42.688;23.256;2023-04-06T13:50:55;7.15;;;6.65;;
20298;SDS011;10308;42.688;23.256;2023-04-06T13:53:25;7.30;;;6.75;;
20298;SDS011;10308;42.688;23.256;2023-04-06T13:55:55;8.23;;;7.63;;
20298;SDS011;10308;42.688;23.256;2023-04-06T13:58:22;8.38;;;7.78;;
20298;SDS011;10308;42.688;23.256;2023-04-06T14:00:51;8.45;;;7.75;;
20298;SDS011;10308;42.688;23.256;2023-04-06T14:03:23;7.57;;;7.00;;
20298;SDS011;10308;42.688;23.256;2023-04-06T14:05:50;7.25;;;6.65;;
20298;SDS011;10308;42.688;23.256;2023-04-06T14:08:18;7.63;;;7.13;;
20298;SDS011;10308;42.688;23.256;2023-04-06T14:10:47;8.38;;;7.78;;
20298;SDS011;10308;42.688;23.256;2023-04-06T14:13:16;8.30;;;7.70;;
20298;SDS011;10308;42.688;23.256;2023-04-06T14:15:45;8.73;;;7.97;;
20298;SDS011;10308;42.688;23.256;2023-04-06T14:18:14;6.85;;;6.40;;
20298;SDS011;10308;42.688;23.256;2023-04-06T14:20:45;6.90;;;6.40;;
20298;SDS011;10308;42.688;23.256;2023-04-06T14:23:12;7.97;;;7.28;;
20298;SDS011;10308;42.688;23.256;2023-04-06T14:25:41;7.50;;;7.00;;
20298;SDS011;10308;42.688;23.256;2023-04-06T14:28:10;8.15;;;7.50;;
20298;SDS011;10308;42.688;23.256;2023-04-06T14:30:37;8.30;;;7.50;;
20298;SDS011;10308;42.688;23.256;2023-04-06T14:33:04;10.43;;;9.45;;
20298;SDS011;10308;42.688;23.256;2023-04-06T14:35:38;8.70;;;7.93;;
20298;SDS011;10308;42.688;23.256;2023-04-06T14:38:06;8.23;;;7.43;;
20298;SDS011;10308;42.688;23.256;2023-04-06T14:40:35;8.25;;;7.65;;
20298;SDS011;10308;42.688;23.256;2023-04-06T14:43:03;8.63;;;7.93;;
20298;SDS011;10308;42.688;23.256;2023-04-06T14:45:32;9.38;;;8.57;;
20298;SDS011;10308;42.688;23.256;2023-04-06T14:48:01;9.68;;;8.88;;
20298;SDS011;10308;42.688;23.256;2023-04-06T14:50:31;8.15;;;7.55;;
20298;SDS011;10308;42.688;23.256;2023-04-06T14:53:04;8.20;;;7.57;;
20298;SDS011;10308;42.688;23.256;2023-04-06T14:55:38;8.48;;;7.88;;
20298;SDS011;10308;42.688;23.256;2023-04-06T14:58:09;9.48;;;8.77;;
20298;SDS011;10308;42.688;23.256;2023-04-06T15:00:37;8.77;;;8.10;;
20298;SDS011;10308;42.688;23.256;2023-04-06T15:03:07;7.93;;;7.32;;
20298;SDS011;10308;42.688;23.256;2023-04-06T15:05:36;8.50;;;7.78;;
20298;SDS011;10308;42.688;23.256;2023-04-06T15:08:05;8.15;;;7.55;;
20298;SDS011;10308;42.688;23.256;2023-04-06T15:10:34;9.13;;;8.38;;
20298;SDS011;10308;42.688;23.256;2023-04-06T15:13:02;9.90;;;9.00;;
20298;SDS011;10308;42.688;23.256;2023-04-06T15:15:29;9.70;;;8.90;;
20298;SDS011;10308;42.688;23.256;2023-04-06T15:17:58;9.13;;;8.43;;
20298;SDS011;10308;42.688;23.256;2023-04-06T15:20:28;9.43;;;8.63;;
20298;SDS011;10308;42.688;23.256;2023-04-06T15:23:00;8.57;;;7.97;;
20298;SDS011;10308;42.688;23.256;2023-04-06T15:25:28;9.13;;;8.43;;
20298;SDS011;10308;42.688;23.256;2023-04-06T15:27:56;9.50;;;8.80;;
20298;SDS011;10308;42.688;23.256;2023-04-06T15:30:24;9.77;;;9.07;;
20298;SDS011;10308;42.688;23.256;2023-04-06T15:32:52;10.85;;;9.95;;
20298;SDS011;10308;42.688;23.256;2023-04-06T15:35:22;10.70;;;9.93;;
20298;SDS011;10308;42.688;23.256;2023-04-06T15:37:50;10.90;;;10.00;;
20298;SDS011;10308;42.688;23.256;2023-04-06T15:40:18;10.60;;;9.90;;
20298;SDS011;10308;42.688;23.256;2023-04-06T15:42:51;10.98;;;10.18;;
20298;SDS011;10308;42.688;23.256;2023-04-06T15:45:18;11.88;;;10.80;;
20298;SDS011;10308;42.688;23.256;2023-04-06T15:47:46;12.18;;;11.10;;
20298;SDS011;10308;42.688;23.256;2023-04-06T15:50:13;12.73;;;11.63;;
20298;SDS011;10308;42.688;23.256;2023-04-06T15:52:40;11.63;;;10.73;;
20298;SDS011;10308;42.688;23.256;2023-04-06T15:55:08;13.48;;;12.38;;
20298;SDS011;10308;42.688;23.256;2023-04-06T15:57:36;13.55;;;12.43;;
20298;SDS011;10308;42.688;23.256;2023-04-06T16:00:07;12.75;;;11.75;;
20298;SDS011;10308;42.688;23.256;2023-04-06T16:02:36;13.40;;;12.20;;
20298;SDS011;10308;42.688;23.256;2023-04-06T16:05:04;11.82;;;10.88;;
20298;SDS011;10308;42.688;23.256;2023-04-06T16:07:32;11.48;;;10.57;;
20298;SDS011;10308;42.688;23.256;2023-04-06T16:10:01;11.45;;;10.55;;
20298;SDS011;10308;42.688;23.256;2023-04-06T16:12:32;10.55;;;9.57;;
20298;SDS011;10308;42.688;23.256;2023-04-06T16:15:02;10.00;;;9.13;;
20298;SDS011;10308;42.688;23.256;2023-04-06T16:17:32;11.02;;;10.15;;
20298;SDS011;10308;42.688;23.256;2023-04-06T16:20:00;10.75;;;9.95;;
20298;SDS011;10308;42.688;23.256;2023-04-06T16:22:28;10.35;;;9.50;;
20298;SDS011;10308;42.688;23.256;2023-04-06T16:24:56;11.18;;;10.30;;
20298;SDS011;10308;42.688;23.256;2023-04-06T16:27:25;12.00;;;11.00;;
20298;SDS011;10308;42.688;23.256;2023-04-06T16:29:52;18.50;;;16.80;;
20298;SDS011;10308;42.688;23.256;2023-04-06T16:32:21;13.57;;;12.60;;
20298;SDS011;10308;42.688;23.256;2023-04-06T16:34:51;10.80;;;10.00;;
20298;SDS011;10308;42.688;23.256;2023-04-06T16:37:19;11.07;;;10.27;;
20298;SDS011;10308;42.688;23.256;2023-04-06T16:39:47;13.10;;;12.00;;
20298;SDS011;10308;42.688;23.256;2023-04-06T16:42:14;13.65;;;12.55;;
20298;SDS011;10308;42.688;23.256;2023-04-06T16:44:44;11.95;;;10.95;;
20298;SDS011;10308;42.688;23.256;2023-04-06T16:47:12;13.38;;;12.27;;
20298;SDS011;10308;42.688;23.256;2023-04-06T16:49:39;12.63;;;11.73;;
20298;SDS011;10308;42.688;23.256;2023-04-06T16:52:10;12.98;;;11.98;;
20298;SDS011;10308;42.688;23.256;2023-04-06T16:54:37;12.73;;;11.75;;
20298;SDS011;10308;42.688;23.256;2023-04-06T16:57:05;13.68;;;12.63;;
20298;SDS011;10308;42.688;23.256;2023-04-06T16:59:32;12.23;;;11.32;;
20298;SDS011;10308;42.688;23.256;2023-04-06T17:02:01;12.02;;;11.02;;
20298;SDS011;10308;42.688;23.256;2023-04-06T17:04:31;11.98;;;11.07;;
20298;SDS011;10308;42.688;23.256;2023-04-06T17:06:59;12.90;;;11.70;;
20298;SDS011;10308;42.688;23.256;2023-04-06T17:09:28;11.57;;;10.70;;
20298;SDS011;10308;42.688;23.256;2023-04-06T17:11:59;11.20;;;10.30;;
20298;SDS011;10308;42.688;23.256;2023-04-06T17:14:29;11.65;;;10.75;;
20298;SDS011;10308;42.688;23.256;2023-04-06T17:16:56;11.20;;;10.30;;
20298;SDS011;10308;42.688;23.256;2023-04-06T17:19:25;12.10;;;11.20;;
20298;SDS011;10308;42.688;23.256;2023-04-06T17:21:53;11.50;;;10.60;;
20298;SDS011;10308;42.688;23.256;2023-04-06T17:24:20;11.68;;;10.88;;
20298;SDS011;10308;42.688;23.256;2023-04-06T17:26:50;11.27;;;10.38;;
20298;SDS011;10308;42.688;23.256;2023-04-06T17:29:19;12.40;;;11.48;;
20298;SDS011;10308;42.688;23.256;2023-04-06T17:31:46;13.75;;;12.65;;
20298;SDS011;10308;42.688;23.256;2023-04-06T17:34:14;13.35;;;12.27;;
20298;SDS011;10308;42.688;23.256;2023-04-06T17:36:40;14.10;;;12.85;;
20298;SDS011;10308;42.688;23.256;2023-04-06T17:39:07;13.98;;;12.77;;
20298;SDS011;10308;42.688;23.256;2023-04-06T17:41:36;14.38;;;13.23;;
20298;SDS011;10308;42.688;23.256;2023-04-06T17:44:05;14.80;;;13.60;;
20298;SDS011;10308;42.688;23.256;2023-04-06T17:46:32;13.65;;;12.52;;
20298;SDS011;10308;42.688;23.256;2023-04-06T17:48:59;13.10;;;12.02;;
20298;SDS011;10308;42.688;23.256;2023-04-06T17:51:32;11.07;;;10.27;;
20298;SDS011;10308;42.688;23.256;2023-04-06T17:53:59;10.70;;;9.80;;
20298;SDS011;10308;42.688;23.256;2023-04-06T17:56:26;10.48;;;9.68;;
20298;SDS011;10308;42.688;23.256;2023-04-06T17:58:57;11.82;;;10.82;;
20298;SDS011;10308;42.688;23.256;2023-04-06T18:01:26;11.50;;;10.50;;
20298;SDS011;10308;42.688;23.256;2023-04-06T18:03:55;12.45;;;11.40;;
20298;SDS011;10308;42.688;23.256;2023-04-06T18:06:22;11.82;;;10.85;;
20298;SDS011;10308;42.688;23.256;2023-04-06T18:08:50;11.13;;;10.23;;
20298;SDS011;10308;42.688;23.256;2023-04-06T18:11:17;12.07;;;11.18;;
20298;SDS011;10308;42.688;23.256;2023-04-06T18:13:46;12.40;;;11.40;;
20298;SDS011;10308;42.688;23.256;2023-04-06T18:16:14;11.20;;;10.27;;
20298;SDS011;10308;42.688;23.256;2023-04-06T18:18:47;10.73;;;9.73;;
20298;SDS011;10308;42.688;23.256;2023-04-06T18:21:15;11.68;;;10.77;;
20298;SDS011;10308;42.688;23.256;2023-04-06T18:23:46;11.40;;;10.60;;
20298;SDS011;10308;42.688;23.256;2023-04-06T18:26:14;11.38;;;10.48;;
20298;SDS011;10308;42.688;23.256;2023-04-06T18:28:43;11.35;;;10.45;;
20298;SDS011;10308;42.688;23.256;2023-04-06T18:31:10;11.57;;;10.68;;
20298;SDS011;10308;42.688;23.256;2023-04-06T18:33:37;11.75;;;10.75;;
20298;SDS011;10308;42.688;23.256;2023-04-06T18:36:10;11.00;;;10.00;;
20298;SDS011;10308;42.688;23.256;2023-04-06T18:38:40;11.65;;;10.75;;